createdAt,value
2018-05-29T00:01:28.422Z,81.38
2018-05-29T00:03:55.927Z,80.74
2018-05-29T00:06:23.431Z,79.96
2018-05-29T00:08:50.902Z,80.19
2018-05-29T00:11:19.282Z,81.53
2018-05-29T00:13:46.747Z,82.01
2018-05-29T00:16:14.340Z,81.83
2018-05-29T00:18:41.824Z,81.43
2018-05-29T00:21:09.351Z,81.35
2018-05-29T00:23:36.906Z,81.97
2018-05-29T00:26:04.399Z,81.74
2018-05-29T00:28:32.131Z,80.39
2018-05-29T00:30:59.779Z,80.93
2018-05-29T00:33:27.343Z,81.19
2018-05-29T00:35:54.837Z,82.51
2018-05-29T00:38:26.623Z,82.37
2018-05-29T00:40:54.219Z,82.38
2018-05-29T00:43:21.779Z,81.78
2018-05-29T00:45:49.334Z,82.93
2018-05-29T00:48:16.891Z,81.11
2018-05-29T00:50:44.459Z,81.36
2018-05-29T00:53:11.930Z,81.17
2018-05-29T00:55:39.420Z,80.62
2018-05-29T00:58:06.926Z,81.71
2018-05-29T01:00:34.429Z,81.75
2018-05-29T01:03:01.944Z,80.37
2018-05-29T01:05:29.498Z,80.93
2018-05-29T01:07:57.054Z,81.49
2018-05-29T01:10:24.539Z,81.69
2018-05-29T01:12:52.015Z,82.26
2018-05-29T01:15:19.503Z,82.68
2018-05-29T01:17:46.972Z,82.83
2018-05-29T01:20:14.459Z,83.10
2018-05-29T01:22:41.932Z,83.34
2018-05-29T01:25:09.447Z,83.84
2018-05-29T01:27:36.947Z,82.27
2018-05-29T01:30:04.487Z,81.84
2018-05-29T01:32:31.984Z,81.69
2018-05-29T01:34:59.502Z,82.05
2018-05-29T01:37:26.994Z,82.49
2018-05-29T01:39:54.502Z,82.78
2018-05-29T01:42:22.052Z,82.98
2018-05-29T01:44:49.520Z,82.49
2018-05-29T01:47:17.564Z,81.57
2018-05-29T01:49:45.035Z,81.99
2018-05-29T01:52:12.594Z,81.05
2018-05-29T01:54:40.269Z,81.65
2018-05-29T01:57:07.811Z,82.22
2018-05-29T01:59:35.366Z,82.81
2018-05-29T02:02:02.922Z,83.10
2018-05-29T02:04:30.468Z,84.15
2018-05-29T02:06:57.949Z,84.61
2018-05-29T02:09:25.503Z,83.34
2018-05-29T02:11:53.064Z,82.28
2018-05-29T02:14:20.554Z,82.27
2018-05-29T02:16:48.076Z,82.31
2018-05-29T02:19:16.363Z,82.72
2018-05-29T02:21:43.861Z,82.57
2018-05-29T02:24:11.733Z,83.21
2018-05-29T02:26:39.222Z,83.70
2018-05-29T02:29:06.695Z,83.78
2018-05-29T02:31:34.198Z,83.05
2018-05-29T02:34:01.666Z,82.82
2018-05-29T02:36:29.168Z,82.11
2018-05-29T02:38:57.381Z,81.88
2018-05-29T02:41:25.087Z,81.62
2018-05-29T02:43:52.569Z,82.17
2018-05-29T02:46:20.114Z,82.30
2018-05-29T02:48:47.664Z,83.07
2018-05-29T02:51:15.157Z,83.46
2018-05-29T02:53:42.651Z,84.08
2018-05-29T02:56:10.133Z,84.73
2018-05-29T02:58:37.610Z,83.55
2018-05-29T03:01:05.094Z,83.25
2018-05-29T03:03:32.599Z,84.31
2018-05-29T03:06:00.072Z,84.88
2018-05-29T03:08:27.623Z,84.67
2018-05-29T03:10:55.463Z,84.68
2018-05-29T03:13:22.960Z,83.96
2018-05-29T03:15:50.448Z,82.92
2018-05-29T03:18:17.943Z,83.13
2018-05-29T03:20:45.419Z,84.30
2018-05-29T03:23:12.914Z,83.38
2018-05-29T03:25:40.421Z,82.73
2018-05-29T03:28:07.913Z,83.21
2018-05-29T03:30:35.764Z,83.55
2018-05-29T03:33:03.254Z,84.17
2018-05-29T03:35:30.792Z,83.12
2018-05-29T03:37:58.298Z,83.23
2018-05-29T03:40:25.880Z,82.17
2018-05-29T03:42:53.370Z,82.43
2018-05-29T03:45:20.850Z,82.50
2018-05-29T03:47:48.406Z,83.41
2018-05-29T03:50:15.870Z,82.59
2018-05-29T03:52:43.473Z,82.34
2018-05-29T03:55:10.943Z,82.39
2018-05-29T03:57:38.503Z,81.90
2018-05-29T04:00:06.040Z,82.08
2018-05-29T04:02:33.615Z,82.57
2018-05-29T04:05:01.094Z,82.63
2018-05-29T04:07:28.619Z,83.44
2018-05-29T04:09:56.099Z,84.14
2018-05-29T04:12:23.624Z,84.07
2018-05-29T04:14:51.721Z,83.28
2018-05-29T04:17:19.214Z,82.05
2018-05-29T04:19:46.750Z,83.09
2018-05-29T04:22:14.270Z,81.81
2018-05-29T04:24:41.823Z,82.50
2018-05-29T04:27:09.403Z,81.98
2018-05-29T04:29:36.873Z,81.59
2018-05-29T04:32:04.362Z,81.28
2018-05-29T04:34:31.874Z,81.43
2018-05-29T04:36:59.486Z,81.13
2018-05-29T04:39:26.969Z,80.50
2018-05-29T04:41:54.538Z,80.40
2018-05-29T04:44:22.030Z,80.19
2018-05-29T04:46:50.129Z,79.84
2018-05-29T04:49:17.638Z,80.01
2018-05-29T04:51:45.426Z,80.74
2018-05-29T04:54:12.907Z,79.87
2018-05-29T04:56:40.414Z,79.25
2018-05-29T04:59:07.891Z,79.50
2018-05-29T05:01:35.364Z,78.68
2018-05-29T05:04:02.854Z,77.34
2018-05-29T05:09:15.693Z,77.77
2018-05-29T05:11:43.163Z,77.80
2018-05-29T05:14:10.687Z,77.18
2018-05-29T05:16:38.268Z,76.43
2018-05-29T05:19:05.766Z,77.23
2018-05-29T05:21:38.170Z,77.49
2018-05-29T05:24:08.520Z,76.35
2018-05-29T05:26:42.207Z,76.88
2018-05-29T05:29:18.834Z,75.31
2018-05-29T05:31:46.307Z,75.76
2018-05-29T05:34:13.858Z,74.90
2018-05-29T05:36:41.727Z,75.16
2018-05-29T05:39:09.246Z,74.92
2018-05-29T05:41:37.145Z,74.01
2018-05-29T05:44:04.730Z,74.39
2018-05-29T05:46:32.310Z,74.45
2018-05-29T05:48:59.806Z,73.96
2018-05-29T05:51:27.275Z,73.94
2018-05-29T05:53:54.779Z,73.13
2018-05-29T05:56:22.251Z,73.12
2018-05-29T05:58:49.743Z,73.04
2018-05-29T06:01:17.249Z,73.25
2018-05-29T06:03:44.890Z,72.47
2018-05-29T06:06:12.471Z,72.21
2018-05-29T06:08:39.967Z,72.23
2018-05-29T06:11:07.447Z,73.25
2018-05-29T06:13:35.187Z,72.59
2018-05-29T06:16:02.857Z,73.05
2018-05-29T06:18:30.359Z,72.15
2018-05-29T06:20:57.836Z,73.33
2018-05-29T06:23:25.332Z,72.38
2018-05-29T06:25:52.807Z,71.70
2018-05-29T06:28:20.355Z,72.09
2018-05-29T06:30:47.831Z,71.91
2018-05-29T06:33:15.411Z,72.13
2018-05-29T06:35:42.891Z,72.21
2018-05-29T06:38:10.420Z,71.98
2018-05-29T06:40:37.987Z,71.65
2018-05-29T06:43:05.540Z,71.26
2018-05-29T06:45:33.212Z,71.48
2018-05-29T06:48:00.694Z,71.47
2018-05-29T06:50:28.186Z,71.58
2018-05-29T06:52:55.650Z,71.02
2018-05-29T06:55:23.151Z,71.57
2018-05-29T06:57:50.656Z,70.82
2018-05-29T07:00:18.144Z,70.58
2018-05-29T07:02:45.620Z,69.77
2018-05-29T07:05:13.155Z,69.50
2018-05-29T07:07:40.713Z,69.69
2018-05-29T07:10:08.236Z,69.59
2018-05-29T07:12:35.706Z,68.62
2018-05-29T07:15:03.195Z,68.01
2018-05-29T07:17:30.747Z,68.67
2018-05-29T07:19:58.315Z,67.45
2018-05-29T07:22:25.746Z,68.20
2018-05-29T07:24:53.315Z,67.98
2018-05-29T07:27:20.875Z,66.99
2018-05-29T07:29:48.370Z,66.46
2018-05-29T07:32:15.882Z,66.92
2018-05-29T07:34:43.449Z,67.71
2018-05-29T07:37:10.944Z,66.36
2018-05-29T07:39:38.476Z,65.47
2018-05-29T07:42:05.943Z,66.67
2018-05-29T07:44:33.435Z,65.52
2018-05-29T07:47:00.928Z,65.28
2018-05-29T07:49:30.043Z,64.73
2018-05-29T07:51:57.584Z,64.62
2018-05-29T07:54:25.138Z,65.11
2018-05-29T07:56:53.687Z,65.07
2018-05-29T07:59:21.312Z,64.47
2018-05-29T08:01:48.855Z,64.22
2018-05-29T08:04:16.348Z,65.63
2018-05-29T08:06:43.853Z,63.66
2018-05-29T08:09:11.410Z,63.22
2018-05-29T08:11:38.970Z,63.65
2018-05-29T08:14:06.533Z,63.22
2018-05-29T08:16:34.007Z,63.40
2018-05-29T08:19:01.543Z,62.52
2018-05-29T08:21:29.106Z,63.28
2018-05-29T08:23:56.599Z,63.08
2018-05-29T08:26:24.110Z,63.18
2018-05-29T08:28:51.581Z,62.41
2018-05-29T08:31:19.079Z,62.78
2018-05-29T08:33:46.553Z,62.18
2018-05-29T08:36:14.147Z,61.91
2018-05-29T08:38:41.623Z,61.77
2018-05-29T08:41:09.138Z,61.30
2018-05-29T08:43:36.720Z,61.03
2018-05-29T08:46:04.261Z,61.74
2018-05-29T08:48:31.695Z,61.37
2018-05-29T08:50:59.287Z,60.68
2018-05-29T08:53:26.857Z,60.73
2018-05-29T08:55:54.403Z,60.08
2018-05-29T08:58:21.876Z,61.10
2018-05-29T09:00:49.426Z,59.33
2018-05-29T09:03:16.898Z,60.65
2018-05-29T09:05:44.437Z,60.42
2018-05-29T09:08:11.998Z,60.11
2018-05-29T09:10:39.513Z,59.42
2018-05-29T09:13:06.984Z,59.70
2018-05-29T09:15:34.785Z,59.82
2018-05-29T09:18:02.435Z,59.46
2018-05-29T09:20:29.930Z,58.40
2018-05-29T09:22:57.395Z,58.94
2018-05-29T09:25:24.883Z,57.99
2018-05-29T09:27:52.521Z,58.16
2018-05-29T09:30:20.015Z,57.55
2018-05-29T09:32:47.502Z,56.68
2018-05-29T09:35:15.035Z,55.82
2018-05-29T09:37:42.736Z,57.12
2018-05-29T09:40:10.355Z,57.25
2018-05-29T09:42:37.877Z,57.46
2018-05-29T09:45:05.503Z,58.24
2018-05-29T09:47:32.985Z,58.24
2018-05-29T09:50:00.475Z,56.82
2018-05-29T09:52:27.955Z,56.19
2018-05-29T09:54:55.448Z,54.90
2018-05-29T09:57:23.067Z,54.11
2018-05-29T09:59:50.645Z,54.06
2018-05-29T10:02:18.208Z,53.48
2018-05-29T10:04:45.768Z,54.44
2018-05-29T10:07:13.311Z,54.72
2018-05-29T10:09:40.779Z,54.70
2018-05-29T10:12:08.288Z,54.33
2018-05-29T10:14:35.774Z,54.65
2018-05-29T10:17:03.325Z,53.23
2018-05-29T10:19:30.799Z,52.80
2018-05-29T10:21:58.282Z,53.12
2018-05-29T10:24:25.823Z,53.00
2018-05-29T10:26:53.356Z,52.47
2018-05-29T10:29:20.830Z,54.19
2018-05-29T10:31:48.347Z,53.11
2018-05-29T10:34:15.833Z,53.37
2018-05-29T10:36:43.335Z,52.17
2018-05-29T10:39:10.827Z,52.39
2018-05-29T10:41:38.318Z,51.40
2018-05-29T10:44:05.786Z,51.75
2018-05-29T10:46:33.276Z,51.02
2018-05-29T10:49:00.755Z,50.88
2018-05-29T10:51:28.296Z,51.18
2018-05-29T10:53:55.767Z,50.03
2018-05-29T10:56:23.278Z,51.90
2018-05-29T10:58:50.751Z,50.26
2018-05-29T11:01:18.239Z,50.88
2018-05-29T11:03:45.716Z,48.53
2018-05-29T11:06:13.232Z,49.54
2018-05-29T11:08:40.695Z,48.03
2018-05-29T11:11:08.188Z,48.51
2018-05-29T11:13:35.727Z,49.08
2018-05-29T11:16:03.467Z,49.26
2018-05-29T11:18:30.942Z,48.38
2018-05-29T11:20:58.511Z,48.66
2018-05-29T11:23:26.053Z,48.08
2018-05-29T11:25:53.726Z,47.65
2018-05-29T11:28:21.198Z,49.20
2018-05-29T11:30:48.690Z,49.41
2018-05-29T11:33:16.167Z,49.41
2018-05-29T11:35:43.655Z,50.15
2018-05-29T11:38:11.124Z,48.64
2018-05-29T11:40:38.623Z,48.66
2018-05-29T11:43:06.099Z,48.67
2018-05-29T11:45:33.571Z,48.92
2018-05-29T11:48:01.068Z,47.71
2018-05-29T11:50:28.545Z,47.75
2018-05-29T11:52:56.059Z,48.05
2018-05-29T11:55:23.637Z,48.78
2018-05-29T11:57:51.138Z,47.98
2018-05-29T12:00:18.610Z,47.58
2018-05-29T12:02:46.118Z,47.52
2018-05-29T12:05:13.593Z,46.92
2018-05-29T12:07:41.125Z,47.28
2018-05-29T12:10:08.588Z,46.86
2018-05-29T12:12:36.225Z,46.98
2018-05-29T12:15:03.752Z,46.50
2018-05-29T12:17:31.245Z,46.67
2018-05-29T12:19:58.751Z,46.09
2018-05-29T12:22:26.306Z,46.05
2018-05-29T12:24:53.746Z,45.95
2018-05-29T12:27:21.245Z,46.04
2018-05-29T12:29:48.723Z,45.85
2018-05-29T12:32:16.227Z,44.67
2018-05-29T12:34:43.695Z,45.30
2018-05-29T12:37:11.188Z,44.86
2018-05-29T12:39:38.655Z,44.50
2018-05-29T12:42:06.159Z,44.06
2018-05-29T12:44:33.638Z,44.83
2018-05-29T12:47:01.147Z,43.50
2018-05-29T12:49:28.620Z,44.57
2018-05-29T12:51:56.177Z,45.17
2018-05-29T12:54:23.661Z,45.11
2018-05-29T12:56:51.158Z,44.81
2018-05-29T12:59:18.659Z,45.98
2018-05-29T13:01:46.285Z,46.40
2018-05-29T13:04:13.765Z,45.61
2018-05-29T13:06:41.356Z,44.74
2018-05-29T13:09:08.904Z,45.27
2018-05-29T13:11:36.463Z,44.51
2018-05-29T13:14:04.010Z,43.75
2018-05-29T13:16:31.617Z,44.71
2018-05-29T13:18:59.107Z,44.60
2018-05-29T13:21:26.604Z,44.79
2018-05-29T13:23:54.094Z,44.02
2018-05-29T13:26:21.563Z,43.92
2018-05-29T13:28:49.064Z,44.30
2018-05-29T13:31:16.552Z,44.42
2018-05-29T13:33:44.120Z,43.10
2018-05-29T13:36:11.621Z,42.62
2018-05-29T13:38:39.119Z,43.52
2018-05-29T13:41:06.652Z,44.39
2018-05-29T13:43:34.175Z,44.41
2018-05-29T13:46:01.718Z,44.24
2018-05-29T13:48:29.253Z,45.04
2018-05-29T13:50:56.843Z,45.49
2018-05-29T13:53:24.354Z,46.38
2018-05-29T13:55:51.859Z,44.95
2018-05-29T13:58:19.374Z,46.78
2018-05-29T14:00:46.847Z,47.36
2018-05-29T14:03:14.360Z,47.28
2018-05-29T14:05:41.832Z,48.03
2018-05-29T14:08:09.320Z,47.68
2018-05-29T14:10:36.806Z,47.14
2018-05-29T14:13:04.295Z,47.53
2018-05-29T14:15:31.767Z,48.23
2018-05-29T14:17:59.280Z,48.77
2018-05-29T14:20:26.759Z,49.37
2018-05-29T14:22:55.096Z,49.70
2018-05-29T14:25:22.580Z,50.61
2018-05-29T14:27:50.103Z,51.26
2018-05-29T14:30:17.579Z,50.81
2018-05-29T14:32:45.676Z,50.76
2018-05-29T14:35:13.143Z,50.97
2018-05-29T14:37:40.651Z,50.10
2018-05-29T14:40:08.122Z,50.86
2018-05-29T14:42:35.619Z,51.04
2018-05-29T14:45:03.105Z,50.53
2018-05-29T14:47:30.599Z,50.96
2018-05-29T14:49:58.090Z,51.55
2018-05-29T14:52:25.618Z,50.45
2018-05-29T14:54:53.076Z,50.96
2018-05-29T14:57:20.588Z,51.70
2018-05-29T14:59:48.058Z,50.89
2018-05-29T15:02:15.536Z,51.06
2018-05-29T15:04:43.029Z,50.31
2018-05-29T15:07:10.504Z,50.23
2018-05-29T15:09:38.003Z,51.25
2018-05-29T15:12:05.474Z,51.83
2018-05-29T15:14:32.972Z,50.84
2018-05-29T15:17:00.444Z,50.77
2018-05-29T15:19:27.943Z,51.25
2018-05-29T15:21:55.412Z,51.47
2018-05-29T15:24:22.905Z,51.44
2018-05-29T15:26:50.435Z,52.83
2018-05-29T15:29:17.938Z,52.10
2018-05-29T15:31:45.408Z,52.20
2018-05-29T15:34:12.901Z,51.35
2018-05-29T15:36:40.374Z,52.90
2018-05-29T15:39:07.867Z,52.59
2018-05-29T15:41:35.344Z,52.43
2018-05-29T15:44:02.851Z,52.88
2018-05-29T15:46:30.325Z,52.65
2018-05-29T15:48:57.888Z,53.39
2018-05-29T15:51:25.365Z,53.53
2018-05-29T15:53:52.868Z,53.76
2018-05-29T15:56:20.343Z,54.12
2018-05-29T15:58:47.836Z,53.68
2018-05-29T16:01:15.310Z,54.54
2018-05-29T16:03:42.804Z,54.22
2018-05-29T16:06:10.271Z,54.48
2018-05-29T16:08:37.764Z,54.68
2018-05-29T16:11:05.235Z,54.63
2018-05-29T16:13:32.730Z,55.49
2018-05-29T16:16:00.204Z,55.77
2018-05-29T16:18:27.706Z,55.16
2018-05-29T16:20:55.176Z,56.88
2018-05-29T16:23:22.675Z,57.56
2018-05-29T16:25:50.159Z,57.41
2018-05-29T16:28:23.643Z,57.64
2018-05-29T16:30:51.136Z,58.71
2018-05-29T16:33:18.711Z,60.16
2018-05-29T16:35:46.193Z,61.04
2018-05-29T16:38:13.700Z,62.04
2018-05-29T16:40:41.373Z,63.74
2018-05-29T16:43:08.912Z,65.20
2018-05-29T16:45:36.705Z,65.37
2018-05-29T16:48:04.561Z,64.82
2018-05-29T16:50:32.068Z,65.01
2018-05-29T16:52:59.548Z,63.69
2018-05-29T16:55:27.055Z,63.48
2018-05-29T16:57:54.531Z,63.62
2018-05-29T17:00:22.028Z,64.25
2018-05-29T17:02:49.494Z,61.32
2018-05-29T17:05:17.009Z,62.72
2018-05-29T17:07:44.489Z,63.24
2018-05-29T17:10:11.987Z,63.97
2018-05-29T17:12:39.583Z,64.12
2018-05-29T17:15:07.204Z,63.47
2018-05-29T17:17:34.625Z,63.63
2018-05-29T17:20:02.130Z,62.79
2018-05-29T17:22:29.605Z,64.05
2018-05-29T17:24:57.389Z,63.55
2018-05-29T17:27:24.873Z,63.23
2018-05-29T17:29:52.389Z,62.77
2018-05-29T17:32:20.011Z,62.95
2018-05-29T17:34:47.507Z,63.12
2018-05-29T17:37:14.973Z,63.78
2018-05-29T17:39:42.465Z,66.43
2018-05-29T17:42:09.930Z,66.60
2018-05-29T17:44:37.419Z,66.41
2018-05-29T17:47:04.890Z,67.87
2018-05-29T17:49:32.384Z,67.26
2018-05-29T17:51:59.874Z,67.95
2018-05-29T17:54:27.366Z,67.51
2018-05-29T17:56:54.840Z,69.09
2018-05-29T17:59:22.367Z,70.20
2018-05-29T18:01:49.898Z,69.75
2018-05-29T18:04:17.395Z,70.86
2018-05-29T18:06:44.942Z,70.78
2018-05-29T18:09:12.494Z,69.86
2018-05-29T18:11:39.976Z,68.94
2018-05-29T18:14:07.521Z,69.26
2018-05-29T18:16:34.955Z,69.43
2018-05-29T18:19:05.300Z,69.10
2018-05-29T18:21:33.255Z,68.57
2018-05-29T18:24:00.955Z,67.89
2018-05-29T18:26:28.479Z,67.72
2018-05-29T18:28:56.040Z,67.31
2018-05-29T18:31:23.535Z,69.80
2018-05-29T18:33:51.149Z,68.56
2018-05-29T18:36:18.661Z,69.69
2018-05-29T18:38:46.155Z,70.98
2018-05-29T18:41:13.714Z,71.60
2018-05-29T18:43:42.094Z,71.83
2018-05-29T18:46:09.635Z,71.57
2018-05-29T18:48:37.296Z,73.75
2018-05-29T18:51:04.810Z,75.05
2018-05-29T18:53:32.310Z,75.50
2018-05-29T18:55:59.849Z,75.01
2018-05-29T18:58:27.393Z,75.30
2018-05-29T19:00:54.939Z,75.04
2018-05-29T19:03:22.460Z,74.63
2018-05-29T19:05:50.169Z,74.80
2018-05-29T19:08:17.730Z,73.42
2018-05-29T19:10:45.246Z,74.76
2018-05-29T19:13:12.859Z,75.51
2018-05-29T19:15:40.613Z,76.38
2018-05-29T19:18:08.354Z,75.23
2018-05-29T19:20:36.239Z,72.20
2018-05-29T19:23:03.909Z,68.87
2018-05-29T19:25:31.378Z,65.76
2018-05-29T19:27:58.967Z,64.94
2018-05-29T19:30:26.509Z,65.19
2018-05-29T19:32:54.211Z,63.58
2018-05-29T19:35:22.144Z,61.97
2018-05-29T19:37:49.659Z,62.55
2018-05-29T19:40:17.566Z,62.83
2018-05-29T19:42:45.188Z,63.66
2018-05-29T19:45:12.754Z,63.11
2018-05-29T19:47:40.289Z,62.16
2018-05-29T19:50:07.922Z,61.92
2018-05-29T19:52:35.492Z,63.49
2018-05-29T19:55:03.025Z,64.16
2018-05-29T19:57:31.355Z,64.87
2018-05-29T19:59:59.120Z,64.51
2018-05-29T20:02:26.652Z,68.28
2018-05-29T20:04:54.170Z,68.06
2018-05-29T20:07:21.799Z,67.40
2018-05-29T20:09:49.379Z,67.95
2018-05-29T20:12:17.027Z,68.51
2018-05-29T20:14:44.638Z,72.98
2018-05-29T20:17:12.193Z,76.45
2018-05-29T20:19:39.764Z,78.76
2018-05-29T20:22:07.472Z,78.62
2018-05-29T20:24:35.129Z,79.28
2018-05-29T20:27:02.775Z,80.88
2018-05-29T20:29:30.638Z,81.52
2018-05-29T20:31:58.134Z,80.15
2018-05-29T20:34:25.636Z,80.45
2018-05-29T20:36:53.284Z,82.03
2018-05-29T20:39:20.896Z,82.19
2018-05-29T20:41:48.489Z,84.65
2018-05-29T20:44:16.191Z,85.65
2018-05-29T20:46:43.744Z,84.43
2018-05-29T20:49:12.038Z,83.93
2018-05-29T20:51:39.670Z,85.08
2018-05-29T20:54:07.180Z,86.12
2018-05-29T20:56:34.703Z,86.88
2018-05-29T20:59:03.508Z,87.33
2018-05-29T21:01:31.983Z,88.65
2018-05-29T21:03:59.491Z,88.56
2018-05-29T21:06:26.979Z,88.45
2018-05-29T21:08:55.560Z,88.90
2018-05-29T21:11:23.066Z,88.22
2018-05-29T21:13:50.653Z,87.30
2018-05-29T21:16:18.176Z,86.17
2018-05-29T21:18:45.779Z,86.41
2018-05-29T21:21:13.327Z,86.56
2018-05-29T21:23:41.280Z,87.15
2018-05-29T21:26:08.842Z,86.10
2018-05-29T21:28:36.330Z,86.27
2018-05-29T21:31:03.818Z,88.96
2018-05-29T21:33:31.296Z,89.11
2018-05-29T21:35:58.791Z,89.79
2018-05-29T21:38:26.275Z,89.44
2018-05-29T21:40:53.834Z,88.70
2018-05-29T21:43:21.351Z,90.03
2018-05-29T21:45:48.890Z,89.62
2018-05-29T21:48:16.462Z,89.93
2018-05-29T21:50:43.941Z,90.30
2018-05-29T21:53:11.570Z,90.82
2018-05-29T21:55:39.042Z,90.43
2018-05-29T21:58:06.803Z,90.12
2018-05-29T22:00:34.274Z,90.14
2018-05-29T22:03:01.763Z,89.76
2018-05-29T22:05:29.234Z,90.42
2018-05-29T22:07:56.723Z,89.86
2018-05-29T22:10:24.194Z,90.02
2018-05-29T22:12:51.691Z,90.92
2018-05-29T22:15:19.171Z,91.74
2018-05-29T22:17:46.662Z,89.54
2018-05-29T22:20:14.132Z,90.64
2018-05-29T22:22:41.633Z,89.29
2018-05-29T22:25:09.106Z,87.98
2018-05-29T22:27:36.743Z,88.60
2018-05-29T22:30:04.210Z,89.82
2018-05-29T22:32:31.695Z,90.14
2018-05-29T22:34:59.261Z,90.06
2018-05-29T22:37:26.751Z,88.85
2018-05-29T22:39:54.235Z,88.53
2018-05-29T22:42:29.937Z,89.67
2018-05-29T22:44:57.410Z,91.67
2018-05-29T22:47:24.900Z,91.13
2018-05-29T22:49:52.378Z,90.39
2018-05-29T22:52:19.866Z,90.35
2018-05-29T22:54:47.335Z,91.37
2018-05-29T22:57:14.825Z,92.20
2018-05-29T22:59:42.299Z,91.99
2018-05-29T23:02:09.870Z,91.53
2018-05-29T23:04:37.343Z,91.05
2018-05-29T23:07:04.892Z,91.20
2018-05-29T23:09:32.354Z,91.38
2018-05-29T23:11:59.850Z,91.36
2018-05-29T23:14:27.355Z,91.66
2018-05-29T23:16:54.838Z,91.42
2018-05-29T23:19:22.306Z,90.85
2018-05-29T23:21:49.831Z,91.50
2018-05-29T23:24:17.387Z,91.88
2018-05-29T23:26:44.869Z,92.06
2018-05-29T23:29:12.355Z,90.91
2018-05-29T23:31:39.819Z,89.81
2018-05-29T23:34:07.635Z,88.42
2018-05-29T23:36:35.178Z,87.82
2018-05-29T23:39:02.668Z,88.84
2018-05-29T23:41:30.139Z,90.95
2018-05-29T23:43:57.665Z,91.43
2018-05-29T23:46:25.206Z,91.00
2018-05-29T23:48:52.691Z,91.06
2018-05-29T23:51:20.163Z,90.80
2018-05-29T23:53:47.659Z,90.36
2018-05-29T23:56:15.132Z,90.32
2018-05-29T23:58:42.691Z,89.28
